Time;durP1;ratioP1;P1;durP2;ratioP2;P2;SDS_P1;SDS_P2;PMS_P1;PMS_P2;Temp;Humidity;BMP_temperature;BMP_pressure;BME280_temperature;BME280_humidity;BME280_pressure;Samples;Min_cycle;Max_cycle;Signal;HPM_P1;HPM_P2
2022/05/25 00:01:51;;;;;;;13.33;8.20;;;;;;;14.24;100.00;99451.69;4250367;28;26120;-67
2022/05/25 00:04:18;;;;;;;10.30;7.00;;;;;;;14.20;100.00;99450.41;4247932;28;20222;-66
2022/05/25 00:06:46;;;;;;;12.43;7.57;;;;;;;14.26;100.00;99454.19;4239857;28;20230;-67
2022/05/25 00:09:13;;;;;;;9.53;6.73;;;;;;;14.23;100.00;99458.06;4234829;28;20899;-66
2022/05/25 00:11:39;;;;;;;9.40;6.57;;;;;;;14.21;100.00;99456.59;4231949;28;20231;-66
2022/05/25 00:14:06;;;;;;;9.67;6.80;;;;;;;14.26;100.00;99468.38;4232881;28;20327;-68
2022/05/25 00:16:32;;;;;;;11.77;7.30;;;;;;;14.25;100.00;99468.56;4238752;28;22960;-67
2022/05/25 00:21:44;;;;;;;12.93;7.73;;;;;;;14.27;100.00;99485.28;4246884;28;20419;-68
2022/05/25 00:24:11;;;;;;;12.10;6.87;;;;;;;14.36;100.00;99489.47;4245595;28;20226;-66
2022/05/25 00:26:37;;;;;;;9.60;7.07;;;;;;;14.42;100.00;99483.34;4239663;28;22711;-66
2022/05/25 00:29:04;;;;;;;11.17;6.80;;;;;;;14.45;100.00;99479.47;4238013;28;23646;-65
2022/05/25 00:31:32;;;;;;;12.63;6.73;;;;;;;14.42;100.00;99478.00;4227519;28;20230;-66
2022/05/25 00:33:59;;;;;;;9.73;6.40;;;;;;;14.41;100.00;99468.28;4224270;28;20225;-66
2022/05/25 00:36:25;;;;;;;17.30;6.90;;;;;;;14.42;100.00;99467.28;4238788;28;20226;-66
2022/05/25 00:38:52;;;;;;;9.13;6.70;;;;;;;14.40;100.00;99463.97;4229288;28;20234;-67
2022/05/25 00:41:23;;;;;;;9.83;6.63;;;;;;;14.32;100.00;99461.44;4237225;28;20227;-66
2022/05/25 00:43:49;;;;;;;11.73;6.03;;;;;;;14.32;100.00;99453.41;4238485;28;20323;-65
2022/05/25 00:46:18;;;;;;;15.27;6.40;;;;;;;14.33;100.00;99455.88;4240339;28;20694;-66
2022/05/25 00:48:48;;;;;;;8.73;6.10;;;;;;;14.35;100.00;99453.00;4234865;28;20230;-66
2022/05/25 00:51:22;;;;;;;9.80;6.80;;;;;;;14.28;100.00;99452.13;4242958;28;20231;-67
2022/05/25 00:53:53;;;;;;;10.90;6.80;;;;;;;14.22;100.00;99445.69;4263067;28;23738;-67
2022/05/25 00:56:21;;;;;;;10.37;7.20;;;;;;;14.23;100.00;99449.19;4258306;28;20249;-67
2022/05/25 00:58:58;;;;;;;9.97;6.87;;;;;;;14.25;100.00;99458.69;4238015;28;20239;-70
2022/05/25 01:01:26;;;;;;;11.73;7.30;;;;;;;14.23;100.00;99465.25;4232372;28;21675;-66
2022/05/25 01:03:53;;;;;;;9.30;6.80;;;;;;;14.29;100.00;99469.84;4238198;28;20406;-67
2022/05/25 01:06:48;;;;;;;9.77;6.97;;;;;;;14.22;100.00;99467.13;4249971;28;20237;-66
2022/05/25 01:10:03;;;;;;;11.83;7.73;;;;;;;14.24;100.00;99453.56;4236146;28;20242;-69
2022/05/25 01:12:59;;;;;;;12.40;7.20;;;;;;;14.24;100.00;99448.19;4253310;28;20283;-66
2022/05/25 01:15:56;;;;;;;10.87;7.63;;;;;;;14.24;100.00;99454.38;4243134;28;20677;-66
2022/05/25 01:18:41;;;;;;;13.83;7.93;;;;;;;14.14;100.00;99448.50;4235437;28;20363;-66
2022/05/25 01:21:21;;;;;;;11.50;8.27;;;;;;;14.19;100.00;99453.28;4252631;28;20230;-65
2022/05/25 01:24:08;;;;;;;11.63;8.00;;;;;;;14.19;100.00;99451.44;4238752;28;21628;-67
2022/05/25 01:26:45;;;;;;;13.17;8.50;;;;;;;14.17;100.00;99447.31;4243250;28;20226;-67
2022/05/25 01:29:49;;;;;;;14.60;9.07;;;;;;;14.11;100.00;99454.25;4245364;28;20226;-66
2022/05/25 01:32:27;;;;;;;11.00;8.50;;;;;;;14.15;100.00;99452.84;4253162;28;21718;-67
2022/05/25 01:35:00;;;;;;;12.53;8.73;;;;;;;14.19;100.00;99447.94;4229552;28;20230;-67
2022/05/25 01:37:37;;;;;;;12.63;8.50;;;;;;;14.05;100.00;99452.34;4228901;28;20245;-68
2022/05/25 01:40:28;;;;;;;12.10;8.80;;;;;;;14.16;100.00;99449.13;4214289;28;20237;-66
2022/05/25 01:43:03;;;;;;;11.37;8.77;;;;;;;14.10;100.00;99455.28;4238163;28;20437;-66
2022/05/25 01:45:34;;;;;;;17.93;8.73;;;;;;;14.16;100.00;99451.81;4230223;28;20306;-67
2022/05/25 01:48:05;;;;;;;15.13;9.77;;;;;;;14.19;100.00;99454.13;4224013;28;20225;-66
2022/05/25 01:51:02;;;;;;;13.87;9.37;;;;;;;14.22;100.00;99452.91;4235511;28;20253;-68
2022/05/25 01:53:32;;;;;;;16.47;10.13;;;;;;;14.22;100.00;99459.09;4266771;28;20802;-67
2022/05/25 01:56:02;;;;;;;11.83;8.67;;;;;;;14.24;100.00;99462.41;4241041;28;20222;-68
2022/05/25 01:58:36;;;;;;;17.30;9.53;;;;;;;14.17;100.00;99461.50;4244391;28;23837;-67
2022/05/25 02:01:05;;;;;;;12.37;8.80;;;;;;;14.19;100.00;99463.97;4270939;28;21921;-67
2022/05/25 02:06:34;;;;;;;12.33;8.83;;;;;;;14.22;100.00;99463.63;4239600;28;20238;-65
2022/05/25 02:09:18;;;;;;;17.70;9.90;;;;;;;14.20;100.00;99457.63;4222761;28;20231;-67
2022/05/25 02:11:48;;;;;;;14.20;9.57;;;;;;;14.28;100.00;99455.66;4232574;28;20333;-68
2022/05/25 02:14:20;;;;;;;14.60;9.77;;;;;;;14.14;100.00;99461.88;4240049;28;21919;-67
2022/05/25 02:16:56;;;;;;;15.60;9.23;;;;;;;14.19;100.00;99454.13;4242658;28;21464;-65
2022/05/25 02:19:30;;;;;;;12.47;9.40;;;;;;;14.17;100.00;99450.81;4236282;28;20243;-67
2022/05/25 02:22:03;;;;;;;15.03;9.03;;;;;;;14.21;100.00;99457.44;4217591;28;22459;-69
2022/05/25 02:24:34;;;;;;;14.43;9.10;;;;;;;14.14;100.00;99462.72;4243765;28;21611;-68
2022/05/25 02:27:04;;;;;;;15.03;9.00;;;;;;;14.21;100.00;99462.78;4249497;28;20228;-69
2022/05/25 02:29:36;;;;;;;13.07;8.73;;;;;;;14.15;100.00;99466.22;4247925;28;20238;-69
2022/05/25 02:32:11;;;;;;;13.97;8.93;;;;;;;14.20;100.00;99471.81;4241047;28;20240;-69
2022/05/25 02:34:40;;;;;;;17.87;9.33;;;;;;;14.07;100.00;99471.69;4240483;28;20229;-68
2022/05/25 02:37:08;;;;;;;16.00;10.70;;;;;;;14.00;100.00;99468.13;4238906;28;20235;-68
2022/05/25 02:39:34;;;;;;;13.63;9.37;;;;;;;14.10;100.00;99471.34;4242278;28;20238;-68
2022/05/25 02:42:01;;;;;;;13.33;9.60;;;;;;;14.06;100.00;99481.56;4239045;28;20236;-67
2022/05/25 02:44:27;;;;;;;14.37;9.90;;;;;;;14.11;100.00;99483.66;4238630;28;20226;-68
2022/05/25 02:46:54;;;;;;;12.90;9.37;;;;;;;14.18;100.00;99489.91;4243308;28;20265;-69
2022/05/25 02:49:21;;;;;;;13.80;9.63;;;;;;;14.10;100.00;99490.06;4235568;28;20236;-69
2022/05/25 02:51:47;;;;;;;11.10;9.20;;;;;;;14.09;100.00;99496.41;4237633;28;20272;-69
2022/05/25 02:54:13;;;;;;;15.03;10.30;;;;;;;14.09;100.00;99501.75;4247563;28;22018;-69
2022/05/25 02:56:40;;;;;;;14.47;9.93;;;;;;;14.19;100.00;99504.97;4253098;28;20239;-69
2022/05/25 02:59:07;;;;;;;18.30;10.30;;;;;;;14.25;100.00;99506.84;4239038;28;23383;-69
2022/05/25 03:01:34;;;;;;;13.10;9.80;;;;;;;14.34;100.00;99505.72;4219700;28;21886;-69
2022/05/25 03:04:00;;;;;;;13.10;9.97;;;;;;;14.36;100.00;99503.66;4241855;28;22063;-70
2022/05/25 03:06:27;;;;;;;14.40;10.30;;;;;;;14.24;100.00;99502.53;4257092;28;21425;-68
2022/05/25 03:08:54;;;;;;;12.50;9.27;;;;;;;14.24;100.00;99505.22;4270192;28;20833;-68
2022/05/25 03:11:21;;;;;;;16.03;10.23;;;;;;;14.30;100.00;99501.75;4242687;28;20223;-69
2022/05/25 03:13:48;;;;;;;15.67;10.23;;;;;;;14.36;100.00;99503.66;4273182;28;20220;-69
2022/05/25 03:16:17;;;;;;;13.93;10.37;;;;;;;14.34;100.00;99505.72;4256283;28;20281;-68
2022/05/25 03:18:43;;;;;;;14.23;9.87;;;;;;;14.38;100.00;99500.00;4271464;28;20670;-70
2022/05/25 03:21:10;;;;;;;16.90;10.50;;;;;;;14.38;100.00;99502.66;4249989;28;20238;-70
2022/05/25 03:23:37;;;;;;;14.43;10.77;;;;;;;14.31;100.00;99511.44;4259260;28;20697;-69
2022/05/25 03:26:04;;;;;;;15.40;11.07;;;;;;;14.43;100.00;99505.59;4252770;28;20262;-69
2022/05/25 03:28:35;;;;;;;15.00;10.93;;;;;;;14.38;100.00;99518.72;4257217;28;20234;-69
2022/05/25 03:31:02;;;;;;;16.70;11.40;;;;;;;14.46;100.00;99513.22;4252644;28;20240;-68
2022/05/25 03:33:29;;;;;;;15.83;11.00;;;;;;;14.56;100.00;99509.25;4268306;28;25804;-67
2022/05/25 03:35:56;;;;;;;18.60;10.80;;;;;;;14.59;100.00;99513.38;4249139;28;22897;-69
2022/05/25 03:38:23;;;;;;;15.10;10.00;;;;;;;14.67;100.00;99515.06;4254072;28;22449;-69
2022/05/25 03:40:50;;;;;;;16.00;10.20;;;;;;;14.77;100.00;99515.56;4250890;28;23097;-69
2022/05/25 03:43:18;;;;;;;13.80;10.43;;;;;;;14.81;100.00;99518.69;4240841;28;21545;-69
2022/05/25 03:45:46;;;;;;;20.93;11.17;;;;;;;14.81;100.00;99522.19;4256224;28;20243;-69
2022/05/25 03:48:14;;;;;;;15.67;10.37;;;;;;;14.80;100.00;99522.38;4252168;28;22228;-68
2022/05/25 03:50:42;;;;;;;15.83;11.23;;;;;;;14.86;100.00;99518.91;4246121;28;20400;-67
2022/05/25 03:53:12;;;;;;;17.53;11.07;;;;;;;14.88;100.00;99523.06;4258616;28;22293;-68
2022/05/25 03:55:39;;;;;;;16.13;10.90;;;;;;;14.83;100.00;99519.31;4246332;28;20226;-68
2022/05/25 03:58:05;;;;;;;14.53;10.73;;;;;;;14.82;100.00;99518.50;4231306;28;20232;-68
2022/05/25 04:00:33;;;;;;;17.47;10.73;;;;;;;14.87;100.00;99517.91;4243366;28;20241;-68
2022/05/25 04:03:02;;;;;;;16.80;11.50;;;;;;;14.82;100.00;99528.34;4241501;28;21679;-68
2022/05/25 04:05:30;;;;;;;19.57;11.33;;;;;;;14.99;100.00;99524.38;4235750;28;20319;-68
2022/05/25 04:08:00;;;;;;;18.30;11.50;;;;;;;15.07;100.00;99518.84;4234116;28;21182;-68
2022/05/25 04:10:30;;;;;;;18.00;11.57;;;;;;;15.12;100.00;99528.97;4250644;28;22792;-69
2022/05/25 04:12:58;;;;;;;19.30;12.07;;;;;;;15.14;100.00;99522.41;4227976;28;20231;-68
2022/05/25 04:15:27;;;;;;;16.93;11.20;;;;;;;15.16;100.00;99522.22;4243231;28;20235;-69
2022/05/25 04:17:54;;;;;;;17.47;11.23;;;;;;;15.12;100.00;99523.63;4226556;28;22860;-69
2022/05/25 04:20:22;;;;;;;15.40;11.23;;;;;;;15.29;100.00;99521.44;4241948;28;20246;-69
2022/05/25 04:22:49;;;;;;;23.17;12.10;;;;;;;15.33;100.00;99520.84;4234939;28;20235;-68
2022/05/25 04:25:18;;;;;;;20.60;11.30;;;;;;;15.48;100.00;99533.31;4249081;28;20274;-71
2022/05/25 04:27:46;;;;;;;13.73;10.37;;;;;;;15.50;100.00;99529.41;4247944;28;20709;-70
2022/05/25 04:30:16;;;;;;;18.23;11.33;;;;;;;15.59;100.00;99525.53;4217505;28;20379;-69
2022/05/25 04:32:43;;;;;;;17.03;11.40;;;;;;;15.69;100.00;99527.84;4237994;28;21236;-68
2022/05/25 04:35:11;;;;;;;20.33;11.77;;;;;;;15.68;100.00;99528.03;4246617;28;23706;-68
2022/05/25 04:37:53;;;;;;;17.43;11.77;;;;;;;15.77;100.00;99524.16;4256119;28;20281;-69
2022/05/25 04:40:34;;;;;;;16.33;10.97;;;;;;;15.84;100.00;99522.34;4222605;28;20302;-69
2022/05/25 04:43:03;;;;;;;17.77;11.50;;;;;;;15.98;100.00;99524.03;4243618;28;20299;-69
2022/05/25 04:45:31;;;;;;;19.83;12.40;;;;;;;16.02;100.00;99516.41;4240120;28;20244;-69
2022/05/25 04:48:00;;;;;;;15.53;11.67;;;;;;;16.02;100.00;99519.09;4245648;28;20311;-69
2022/05/25 04:50:30;;;;;;;18.07;11.90;;;;;;;16.14;100.00;99506.72;4244363;28;21797;-69
2022/05/25 04:52:59;;;;;;;20.17;12.47;;;;;;;16.21;100.00;99517.47;4249767;28;20618;-69
2022/05/25 04:58:29;;;;;;;18.63;12.93;;;;;;;16.38;100.00;99525.97;4232659;28;20235;-68
2022/05/25 05:00:56;;;;;;;16.77;11.17;;;;;;;16.49;100.00;99527.22;4223316;28;20362;-70
2022/05/25 05:03:24;;;;;;;17.63;12.03;;;;;;;16.53;100.00;99533.81;4236616;28;21175;-69
2022/05/25 05:05:51;;;;;;;22.70;13.10;;;;;;;16.48;100.00;99534.41;4242468;28;20235;-69
2022/05/25 05:08:18;;;;;;;23.17;14.13;;;;;;;16.29;100.00;99529.88;4250336;28;20257;-69
2022/05/25 05:10:44;;;;;;;20.73;14.10;;;;;;;16.05;100.00;99529.41;4252747;28;21717;-68
2022/05/25 05:13:11;;;;;;;18.37;13.83;;;;;;;15.89;100.00;99532.47;4246472;28;20243;-71
2022/05/25 05:15:41;;;;;;;20.77;14.53;;;;;;;15.89;100.00;99522.56;4265715;28;20227;-69
2022/05/25 05:18:08;;;;;;;23.37;16.50;;;;;;;15.84;100.00;99533.06;4228013;28;20242;-69
2022/05/25 05:20:35;;;;;;;24.90;16.63;;;;;;;15.82;100.00;99530.56;4254541;28;20248;-67
2022/05/25 05:23:08;;;;;;;24.63;16.53;;;;;;;15.85;100.00;99534.75;4231140;28;20245;-67
2022/05/25 05:25:35;;;;;;;27.63;16.43;;;;;;;15.83;100.00;99531.44;4249014;28;20425;-69
2022/05/25 05:28:11;;;;;;;34.57;18.50;;;;;;;15.79;100.00;99533.66;4245788;28;22443;-68
2022/05/25 05:30:44;;;;;;;27.87;18.37;;;;;;;15.82;100.00;99538.63;4250299;28;21385;-68
2022/05/25 05:33:14;;;;;;;25.83;17.90;;;;;;;15.80;100.00;99547.91;4244338;28;20231;-69
2022/05/25 05:35:42;;;;;;;34.60;19.73;;;;;;;15.80;100.00;99537.16;4249467;28;20233;-68
2022/05/25 05:38:10;;;;;;;30.27;19.20;;;;;;;15.81;100.00;99538.84;4233506;28;20735;-67
2022/05/25 05:40:36;;;;;;;41.80;22.10;;;;;;;15.78;100.00;99534.72;4243008;28;20655;-66
2022/05/25 05:43:04;;;;;;;45.57;23.40;;;;;;;15.87;100.00;99538.03;4235505;28;23084;-67
2022/05/25 05:45:34;;;;;;;46.13;22.73;;;;;;;15.86;100.00;99546.28;4261926;28;21283;-67
2022/05/25 05:48:15;;;;;;;42.23;24.27;;;;;;;15.90;100.00;99540.31;4258003;28;20684;-67
2022/05/25 05:50:42;;;;;;;43.97;24.50;;;;;;;16.03;100.00;99547.56;4248199;28;20234;-67
2022/05/25 05:53:10;;;;;;;42.13;23.70;;;;;;;16.24;100.00;99541.22;4244558;28;20223;-69
2022/05/25 05:55:37;;;;;;;50.93;25.43;;;;;;;16.14;100.00;99543.47;4269633;28;20237;-72
2022/05/25 05:58:04;;;;;;;50.60;26.33;;;;;;;16.15;100.00;99555.84;4250193;28;22019;-70
2022/05/25 06:00:30;;;;;;;50.23;25.37;;;;;;;16.25;100.00;99553.63;4256282;28;21305;-69
2022/05/25 06:02:58;;;;;;;57.07;27.73;;;;;;;16.22;100.00;99560.22;4235702;28;20312;-67
2022/05/25 06:05:25;;;;;;;56.30;28.07;;;;;;;16.15;100.00;99561.22;4253565;28;22378;-69
2022/05/25 06:07:52;;;;;;;56.73;28.13;;;;;;;16.10;100.00;99569.06;4261137;28;20242;-69
2022/05/25 06:10:19;;;;;;;52.77;27.33;;;;;;;16.00;100.00;99562.22;4258210;28;21006;-68
2022/05/25 06:12:47;;;;;;;60.60;28.63;;;;;;;15.94;100.00;99563.00;4251272;28;20257;-69
2022/05/25 06:20:49;;;;;;;58.93;28.07;;;;;;;16.00;100.00;99558.72;4252271;28;20729;-71
2022/05/25 06:23:16;;;;;;;54.07;27.73;;;;;;;16.12;100.00;99558.94;4257599;28;20227;-71
2022/05/25 06:25:43;;;;;;;57.77;28.90;;;;;;;16.00;100.00;99548.81;4245574;28;20277;-69
2022/05/25 06:28:09;;;;;;;49.60;25.87;;;;;;;16.25;100.00;99545.56;4240068;28;20723;-71
2022/05/25 06:30:36;;;;;;;49.10;26.87;;;;;;;16.18;100.00;99539.38;4290192;28;21339;-69
2022/05/25 06:33:06;;;;;;;46.87;25.73;;;;;;;16.07;100.00;99548.00;4254947;28;21220;-70
2022/05/25 06:35:34;;;;;;;52.90;29.40;;;;;;;16.06;100.00;99551.69;4237362;28;20981;-66
2022/05/25 06:38:01;;;;;;;58.80;29.23;;;;;;;16.03;100.00;99543.03;4250225;28;20245;-74
2022/05/25 06:40:28;;;;;;;55.07;28.20;;;;;;;16.14;100.00;99540.78;4252177;28;20241;-68
2022/05/25 06:42:55;;;;;;;56.20;30.47;;;;;;;16.19;100.00;99532.97;4253513;28;23075;-67
2022/05/25 06:45:22;;;;;;;54.60;29.13;;;;;;;16.18;100.00;99528.63;4271994;28;21290;-66
2022/05/25 06:47:49;;;;;;;48.27;27.73;;;;;;;16.32;100.00;99530.31;4251290;28;21398;-66
2022/05/25 06:50:16;;;;;;;47.70;26.73;;;;;;;16.50;100.00;99534.22;4237148;28;25490;-67
2022/05/25 06:52:43;;;;;;;48.03;27.07;;;;;;;16.34;100.00;99532.75;4258956;28;20411;-67
2022/05/25 06:55:10;;;;;;;51.20;28.50;;;;;;;16.37;100.00;99537.75;4256212;28;26077;-67
2022/05/25 06:57:37;;;;;;;50.27;28.90;;;;;;;16.45;100.00;99542.91;4252403;28;20254;-66
2022/05/25 07:00:05;;;;;;;43.63;27.03;;;;;;;16.36;100.00;99546.81;4292685;28;20235;-70
2022/05/25 07:02:32;;;;;;;44.23;25.83;;;;;;;16.42;100.00;99551.38;4240969;28;20227;-66
2022/05/25 07:04:58;;;;;;;50.07;29.13;;;;;;;16.40;100.00;99553.44;4241504;28;20219;-67
2022/05/25 07:07:25;;;;;;;48.57;27.30;;;;;;;16.24;100.00;99550.09;4246651;28;20290;-66
2022/05/25 07:09:52;;;;;;;50.40;27.47;;;;;;;16.13;100.00;99557.91;4253257;28;20824;-67
2022/05/25 07:12:19;;;;;;;48.30;27.27;;;;;;;16.22;100.00;99562.06;4245535;28;20236;-67
2022/05/25 07:14:45;;;;;;;54.70;29.03;;;;;;;16.36;100.00;99563.75;4247276;28;20705;-66
2022/05/25 07:17:12;;;;;;;49.27;29.07;;;;;;;16.44;100.00;99562.75;4261042;28;21796;-68
2022/05/25 07:19:39;;;;;;;46.17;28.00;;;;;;;16.41;100.00;99561.28;4231547;28;20232;-70
2022/05/25 07:22:12;;;;;;;53.63;29.30;;;;;;;16.43;100.00;99564.56;4239168;28;20239;-69
2022/05/25 07:24:45;;;;;;;49.97;29.07;;;;;;;16.67;100.00;99562.34;4236582;28;20243;-71
2022/05/25 07:27:11;;;;;;;50.80;28.77;;;;;;;16.62;100.00;99568.34;4251630;28;20268;-70
2022/05/25 07:29:38;;;;;;;41.70;25.73;;;;;;;16.80;100.00;99573.13;4261665;28;20230;-69
2022/05/25 07:32:06;;;;;;;43.97;26.50;;;;;;;16.82;100.00;99567.53;4235546;28;20309;-68
2022/05/25 07:34:37;;;;;;;42.20;26.50;;;;;;;16.65;100.00;99567.09;4257760;28;21719;-71
2022/05/25 07:37:10;;;;;;;43.87;26.60;;;;;;;16.56;100.00;99563.78;4252547;28;20231;-69
2022/05/25 07:39:40;;;;;;;40.33;26.00;;;;;;;16.72;100.00;99562.56;4252332;28;23006;-78
2022/05/25 07:42:08;;;;;;;38.50;24.90;;;;;;;16.91;100.00;99570.84;4245668;28;20239;-70
2022/05/25 07:44:44;;;;;;;38.00;25.20;;;;;;;16.98;100.00;99571.69;4247408;28;20242;-71
2022/05/25 07:47:11;;;;;;;39.00;25.30;;;;;;;17.12;100.00;99567.94;4266687;28;21225;-77
2022/05/25 07:49:37;;;;;;;37.97;25.20;;;;;;;17.19;100.00;99568.75;4241854;28;20294;-68
2022/05/25 07:52:04;;;;;;;38.20;24.40;;;;;;;17.27;100.00;99571.19;4232281;28;20656;-76
2022/05/25 07:54:35;;;;;;;37.80;24.67;;;;;;;17.35;100.00;99582.78;4257963;28;20706;-69
2022/05/25 07:57:02;;;;;;;36.40;23.43;;;;;;;17.44;100.00;99582.38;4261256;28;21522;-70
2022/05/25 07:59:28;;;;;;;37.90;24.93;;;;;;;17.53;100.00;99585.63;4231344;28;20273;-73
2022/05/25 08:07:34;;;;;;;45.47;28.57;;;;;;;16.98;100.00;99593.19;4255666;28;20232;-68
2022/05/25 08:10:09;;;;;;;48.17;29.13;;;;;;;16.95;100.00;99597.09;4243228;28;20317;-67
2022/05/25 08:12:38;;;;;;;40.40;27.00;;;;;;;17.11;100.00;99605.78;4251951;28;21186;-69
2022/05/25 08:15:06;;;;;;;43.53;26.13;;;;;;;17.08;100.00;99604.31;4231392;28;21123;-67
2022/05/25 08:17:33;;;;;;;39.03;26.33;;;;;;;17.25;100.00;99610.91;4259112;28;21064;-67
2022/05/25 08:19:59;;;;;;;47.53;28.97;;;;;;;17.02;100.00;99602.47;4239770;28;20906;-67
2022/05/25 08:22:26;;;;;;;45.60;29.33;;;;;;;16.97;100.00;99603.09;4236703;28;20235;-68
2022/05/25 08:24:52;;;;;;;49.40;30.10;;;;;;;16.80;100.00;99591.09;4237988;28;21180;-69
2022/05/25 08:27:19;;;;;;;49.80;30.00;;;;;;;16.81;100.00;99598.13;4251857;28;20552;-70
2022/05/25 08:29:46;;;;;;;50.70;30.10;;;;;;;16.79;100.00;99597.53;4244724;28;20234;-66
2022/05/25 08:32:14;;;;;;;57.77;33.90;;;;;;;16.69;100.00;99600.56;4251901;28;20233;-71
2022/05/25 08:34:41;;;;;;;56.27;32.43;;;;;;;16.82;100.00;99595.22;4243982;28;23895;-69
2022/05/25 08:37:10;;;;;;;62.40;36.77;;;;;;;16.71;100.00;99598.50;4237992;28;20231;-69
2022/05/25 08:39:37;;;;;;;64.23;36.27;;;;;;;16.70;100.00;99591.47;4248730;28;20223;-66
2022/05/25 08:42:07;;;;;;;63.57;36.40;;;;;;;16.75;100.00;99594.38;4239794;28;20300;-71
2022/05/25 08:44:34;;;;;;;73.60;39.47;;;;;;;16.74;100.00;99598.09;4228771;28;21015;-69
2022/05/25 08:47:02;;;;;;;66.60;37.80;;;;;;;16.95;100.00;99609.69;4241849;28;20243;-67
2022/05/25 08:49:31;;;;;;;72.80;38.13;;;;;;;16.88;100.00;99617.78;4221932;28;21773;-70
2022/05/25 08:52:01;;;;;;;74.53;40.67;;;;;;;16.71;100.00;99611.94;4233792;28;20262;-70
2022/05/25 08:54:29;;;;;;;79.60;40.90;;;;;;;16.63;100.00;99622.88;4225513;28;21487;-70
2022/05/25 08:56:59;;;;;;;87.37;42.13;;;;;;;16.43;100.00;99623.66;4229301;28;25445;-70
2022/05/25 08:59:36;;;;;;;80.60;42.17;;;;;;;16.23;100.00;99622.78;4244293;28;20236;-70
2022/05/25 09:02:25;;;;;;;96.57;44.23;;;;;;;16.15;100.00;99631.84;4239737;28;20599;-68
2022/05/25 09:05:34;;;;;;;103.77;48.07;;;;;;;15.97;100.00;99635.09;4240570;28;20766;-72
2022/05/25 09:08:36;;;;;;;107.43;47.57;;;;;;;15.97;100.00;99645.81;4248250;28;22093;-66
2022/05/25 09:11:19;;;;;;;102.10;46.47;;;;;;;16.06;100.00;99648.31;4246367;28;21371;-69
2022/05/25 09:14:07;;;;;;;105.27;48.07;;;;;;;15.98;100.00;99650.16;4239245;28;21734;-69
2022/05/25 09:16:36;;;;;;;106.67;48.57;;;;;;;15.96;100.00;99648.69;4233514;28;20231;-71
2022/05/25 09:19:12;;;;;;;110.00;49.93;;;;;;;15.92;100.00;99653.66;4230558;28;20250;-70
2022/05/25 09:21:52;;;;;;;109.43;52.47;;;;;;;15.77;100.00;99655.63;4235083;28;20386;-68
2022/05/25 09:24:24;;;;;;;115.83;52.47;;;;;;;15.73;100.00;99654.34;4219776;28;20230;-69
2022/05/25 09:26:51;;;;;;;115.00;53.80;;;;;;;15.62;100.00;99648.50;4232940;28;20658;-68
2022/05/25 09:29:19;;;;;;;110.77;52.57;;;;;;;15.66;100.00;99653.44;4234228;28;20360;-68
2022/05/25 09:32:01;;;;;;;108.50;52.20;;;;;;;15.67;100.00;99660.50;4238448;28;20227;-69
2022/05/25 09:34:38;;;;;;;106.37;50.43;;;;;;;15.67;100.00;99661.31;4215567;28;20251;-69
2022/05/25 09:37:10;;;;;;;104.17;50.30;;;;;;;15.60;100.00;99665.81;4218060;28;20265;-69
2022/05/25 09:39:42;;;;;;;103.57;52.23;;;;;;;15.50;100.00;99662.63;4236249;28;20736;-68
2022/05/25 09:42:14;;;;;;;99.77;52.40;;;;;;;15.48;100.00;99662.03;4238974;28;21028;-68
2022/05/25 09:44:40;;;;;;;96.83;51.67;;;;;;;15.59;100.00;99664.13;4244339;28;21684;-67
2022/05/25 09:47:14;;;;;;;94.10;52.20;;;;;;;15.54;100.00;99663.91;4235667;28;20297;-69
2022/05/25 09:49:44;;;;;;;93.37;50.93;;;;;;;15.55;100.00;99663.72;4235022;28;20222;-69
2022/05/25 09:52:15;;;;;;;89.67;50.13;;;;;;;15.50;100.00;99654.59;4243685;28;23034;-68
2022/05/25 09:55:04;;;;;;;78.27;47.70;;;;;;;15.56;100.00;99654.63;4256273;28;22939;-67
2022/05/25 09:57:36;;;;;;;83.87;47.93;;;;;;;15.71;100.00;99657.25;4250760;28;25241;-67
2022/05/25 10:00:22;;;;;;;80.63;48.80;;;;;;;15.81;100.00;99652.34;4230382;28;20232;-68
2022/05/25 10:03:23;;;;;;;72.03;44.10;;;;;;;15.82;100.00;99651.31;4229604;28;20300;-69
2022/05/25 10:05:55;;;;;;;75.37;46.13;;;;;;;15.82;100.00;99662.03;4247042;28;21387;-69
2022/05/25 10:08:30;;;;;;;73.37;43.53;;;;;;;15.93;100.00;99649.91;4229019;28;20281;-69
2022/05/25 10:11:00;;;;;;;68.37;42.10;;;;;;;15.95;100.00;99655.91;4239719;28;20666;-70
2022/05/25 10:13:29;;;;;;;67.93;41.10;;;;;;;16.07;100.00;99660.72;4262215;28;20264;-68
2022/05/25 10:15:58;;;;;;;53.57;35.57;;;;;;;16.02;100.00;99658.66;4244904;28;20300;-68
2022/05/25 10:18:41;;;;;;;52.03;33.80;;;;;;;16.21;100.00;99652.53;4243454;28;21547;-67
2022/05/25 10:21:13;;;;;;;46.23;31.80;;;;;;;16.47;100.00;99656.31;4254597;28;20239;-69
2022/05/25 10:23:43;;;;;;;38.83;28.00;;;;;;;16.66;100.00;99662.75;4258028;28;20231;-71
2022/05/25 10:26:12;;;;;;;37.67;26.77;;;;;;;16.65;100.00;99658.44;4237001;28;21224;-69
2022/05/25 10:28:48;;;;;;;35.23;25.23;;;;;;;16.82;100.00;99648.16;4236794;28;22160;-69
2022/05/25 10:36:45;;;;;;;28.53;21.13;;;;;;;16.96;100.00;99657.88;4261817;28;20293;-68
2022/05/25 10:37:07;;;;;;;30.13;20.97;;;;;;;16.83;100.00;99653.34;4242304;28;20238;-71
2022/05/25 10:39:43;;;;;;;27.23;20.33;;;;;;;16.94;100.00;99651.06;4234944;28;20235;-69
2022/05/25 10:42:18;;;;;;;29.40;19.97;;;;;;;17.04;100.00;99654.16;4231296;28;20247;-71
2022/05/25 10:45:11;;;;;;;23.50;17.60;;;;;;;16.93;100.00;99652.06;4231232;28;20316;-70
2022/05/25 10:47:49;;;;;;;28.93;17.83;;;;;;;16.91;100.00;99657.69;4246727;28;20232;-71
2022/05/25 10:50:23;;;;;;;21.67;15.57;;;;;;;16.63;100.00;99655.13;4262277;28;22421;-69
2022/05/25 10:53:15;;;;;;;22.97;16.23;;;;;;;16.43;100.00;99644.31;4258912;28;20239;-69
2022/05/25 10:56:02;;;;;;;19.57;13.97;;;;;;;16.51;100.00;99651.38;4242436;28;21283;-72
2022/05/25 10:59:06;;;;;;;16.63;13.33;;;;;;;16.54;100.00;99645.59;4264693;28;20414;-69
2022/05/25 11:01:40;;;;;;;17.10;12.60;;;;;;;16.49;100.00;99646.22;4258818;28;20349;-72
2022/05/25 11:04:20;;;;;;;24.53;12.03;;;;;;;16.32;100.00;99656.50;4237019;28;20511;-70
2022/05/25 11:07:12;;;;;;;16.53;11.27;;;;;;;16.22;100.00;99653.34;4231270;28;20250;-70
2022/05/25 11:09:57;;;;;;;13.87;9.97;;;;;;;15.92;100.00;99660.84;4267907;28;22796;-77
2022/05/25 11:12:49;;;;;;;14.00;9.43;;;;;;;15.87;100.00;99669.50;4238719;28;20233;-71
2022/05/25 11:15:43;;;;;;;13.07;8.10;;;;;;;15.80;98.31;99682.91;4252660;28;20439;-70
2022/05/25 11:18:10;;;;;;;13.40;8.60;;;;;;;15.74;98.01;99690.91;4242052;28;20226;-70
2022/05/25 11:20:47;;;;;;;14.50;7.83;;;;;;;15.65;97.59;99692.88;4248855;28;20268;-70
2022/05/25 11:23:36;;;;;;;10.53;7.03;;;;;;;15.54;97.52;99696.91;4244356;28;21080;-69
2022/05/25 11:26:31;;;;;;;10.27;6.83;;;;;;;15.44;98.33;99698.28;4241641;28;25359;-71
2022/05/25 11:29:32;;;;;;;12.80;7.20;;;;;;;15.52;95.63;99695.44;4231274;28;20497;-69
2022/05/25 11:32:11;;;;;;;8.17;5.73;;;;;;;15.37;95.42;99690.19;4248656;28;20322;-71
2022/05/25 11:35:14;;;;;;;8.73;5.40;;;;;;;15.38;94.81;99689.16;4231214;28;20233;-68
2022/05/25 11:38:06;;;;;;;10.13;5.80;;;;;;;15.34;95.14;99699.44;4251270;28;20322;-70
2022/05/25 11:40:46;;;;;;;8.13;5.83;;;;;;;15.31;94.23;99697.16;4266510;28;23022;-70
2022/05/25 11:43:49;;;;;;;7.30;6.17;;;;;;;15.29;94.93;99707.25;4236605;28;21264;-69
2022/05/25 11:46:39;;;;;;;10.47;6.63;;;;;;;15.01;97.93;99709.03;4266290;28;20324;-71
2022/05/25 11:49:48;;;;;;;10.93;7.20;;;;;;;14.93;99.24;99715.34;4253600;28;20588;-68
2022/05/25 11:52:37;;;;;;;9.50;6.97;;;;;;;15.12;98.58;99717.38;4232449;28;20230;-71
2022/05/25 11:55:16;;;;;;;11.97;6.70;;;;;;;15.03;99.99;99726.59;4257127;28;20301;-67
2022/05/25 11:58:14;;;;;;;11.70;7.77;;;;;;;14.98;100.00;99727.19;4292783;28;20245;-70
2022/05/25 12:00:58;;;;;;;13.07;8.13;;;;;;;14.95;100.00;99726.72;4240730;28;20339;-68